Aeroporto :
LOGIN :

Iscrizione | Disclaimer

   EN    FR    IT 

 










Sommario :    VFR   VFR Marginale   IFR   IFR Intensivo   IFR Molto Intensivo
Visibilità : 
Base nubi : 
>= 8 km
>= 3000ft
5 / 8 km
1000 / 3000 ft
1500m / 5 km
500 / 1000 ft
800 / 1500m
200 / 500 ft
< 800m
< 200 ft
Simboli :   Temporali  Nebbia  Neve Forte  Precipitazioni Forti  Vento > 20 kt
SIGMETs :   Varie  Temporali  Ghiacco  Turbolenza  Onda orograficha  Ceneri Vulcaniche






- Altitudine del aeroporto : 755 ft
- Codice IATA : KSC


LZKZ - Kosice

ULTIMO METAR :
  • 191700Z 22008KT CAVOK 06/M01 Q1016 NOSIG

METARs OBSOLETI :
  • 191630Z 23008KT CAVOK 06/M01 Q1016 NOSIG
  • 191600Z 23009KT CAVOK 07/M02 Q1016 NOSIG
  • 191530Z 24011KT CAVOK 07/M02 Q1016 NOSIG
  • 191500Z 23011KT CAVOK 07/M02 Q1016 NOSIG
  • 191430Z 24011KT CAVOK 08/M02 Q1016 NOSIG

TAF TAF LZKZ
Valido dal 19 a 12 ore il 20 a 12 ore UTC


191100Z 1912/2012 23005KT CAVOK
BECMG 1918/1920 9999 SCT040 BKN080
BECMG 2000/2002 01005KT
PROB40
TEMPO 2000/2005 -RA
BECMG 2009/2011 VRB02KT BKN032



MetMap, La meteo Aeronautica in un colpo d'occhio ! - Copyright ORBIFLY Dicembre 2007 - Disclaimer

ORBIFLY MET'MAP TEAM :

Programmazione e sviluppo : Alexandra Zaïnal
Concezione : Baudouin d'Aumeries
Aiuto per la programmazione : Marc-Olivier Méhu
Supporto tecnico e logistico : Manuel Goepfert
Aiuto per la traduzione : Arnaldo La Scala

Contatto : metmap@orbifly.com




FONTI E CREDITI :

   NOAA